createdAt,value
2022-09-20T00:01:07.775Z,79.60
2022-09-20T00:03:38.225Z,79.80
2022-09-20T00:06:07.990Z,81.10
2022-09-20T00:08:36.511Z,80.20
2022-09-20T00:11:06.586Z,80.50
2022-09-20T00:13:36.019Z,80.50
2022-09-20T00:16:06.603Z,80.00
2022-09-20T00:18:34.825Z,80.20
2022-09-20T00:21:05.170Z,80.50
2022-09-20T00:23:33.743Z,80.40
2022-09-20T00:26:03.141Z,80.40
2022-09-20T00:28:32.761Z,80.30
2022-09-20T00:31:00.638Z,79.70
2022-09-20T00:33:49.173Z,79.50
2022-09-20T00:36:17.445Z,80.10
2022-09-20T00:38:45.638Z,79.90
2022-09-20T00:41:13.489Z,80.50
2022-09-20T00:43:43.879Z,79.40
2022-09-20T00:46:23.627Z,79.50
2022-09-20T00:48:54.473Z,80.80
2022-09-20T00:51:29.171Z,80.30
2022-09-20T00:54:00.458Z,80.30
2022-09-20T00:56:32.156Z,80.40
2022-09-20T00:59:07.353Z,79.70
2022-09-20T01:01:35.414Z,80.00
2022-09-20T01:04:04.782Z,78.80
2022-09-20T01:06:35.522Z,78.80
2022-09-20T01:09:07.290Z,79.90
2022-09-20T01:11:36.296Z,79.90
2022-09-20T01:14:04.777Z,80.80
2022-09-20T01:16:35.141Z,82.10
2022-09-20T01:19:09.669Z,81.20
2022-09-20T01:21:39.176Z,81.20
2022-09-20T01:24:15.833Z,81.30
2022-09-20T01:26:59.163Z,81.10
2022-09-20T01:29:40.673Z,80.70
2022-09-20T01:32:14.658Z,79.60
2022-09-20T01:34:47.902Z,79.60
2022-09-20T01:37:23.889Z,80.60
2022-09-20T01:40:01.366Z,81.30
2022-09-20T01:42:33.917Z,80.00
2022-09-20T01:45:11.606Z,79.10
2022-09-20T01:47:45.401Z,78.20
2022-09-20T01:50:24.313Z,78.20
2022-09-20T01:53:17.941Z,78.10
2022-09-20T01:56:17.316Z,78.80
2022-09-20T01:59:25.344Z,79.60
2022-09-20T02:02:30.505Z,78.60
2022-09-20T02:05:34.432Z,78.00
2022-09-20T02:08:14.956Z,77.90
2022-09-20T02:10:54.781Z,77.90
2022-09-20T02:13:31.004Z,79.40
2022-09-20T02:16:40.796Z,77.20
2022-09-20T02:19:22.408Z,76.50
2022-09-20T02:22:03.045Z,75.80
2022-09-20T02:24:39.899Z,76.30
2022-09-20T02:27:19.220Z,75.70
2022-09-20T02:29:56.249Z,75.90
2022-09-20T02:32:35.038Z,77.00
2022-09-20T02:35:29.389Z,77.30
2022-09-20T02:38:15.776Z,77.20
2022-09-20T02:40:59.743Z,78.90
2022-09-20T02:43:34.582Z,79.60
2022-09-20T02:46:07.628Z,78.50
2022-09-20T02:48:43.998Z,78.40
2022-09-20T02:51:22.888Z,77.50
2022-09-20T02:54:13.939Z,79.10
2022-09-20T02:56:48.622Z,79.60
2022-09-20T02:59:26.351Z,80.60
2022-09-20T03:02:02.299Z,80.80
2022-09-20T03:04:46.715Z,80.50
2022-09-20T03:07:24.081Z,80.40
2022-09-20T03:10:02.111Z,80.30
2022-09-20T03:12:39.122Z,80.40
2022-09-20T03:15:26.310Z,80.50
2022-09-20T03:18:05.952Z,79.80
2022-09-20T03:20:41.846Z,81.00
2022-09-20T03:23:27.824Z,80.60
2022-09-20T03:26:03.783Z,80.40
2022-09-20T03:28:56.192Z,80.30
2022-09-20T03:31:36.745Z,80.70
2022-09-20T03:34:16.672Z,80.20
2022-09-20T03:37:00.727Z,80.10
2022-09-20T03:40:02.989Z,79.90
2022-09-20T03:42:31.930Z,80.50
2022-09-20T03:45:25.331Z,80.20
2022-09-20T03:48:06.702Z,80.10
2022-09-20T03:50:55.983Z,80.20
2022-09-20T03:53:53.500Z,80.60
2022-09-20T03:56:50.322Z,79.60
2022-09-20T03:59:49.347Z,79.20
2022-09-20T04:02:43.492Z,78.50
2022-09-20T04:05:16.796Z,79.10
2022-09-20T04:07:55.426Z,78.70
2022-09-20T04:10:35.910Z,79.30
2022-09-20T04:13:26.271Z,78.60
2022-09-20T04:16:05.006Z,78.60
2022-09-20T04:18:39.007Z,79.50
2022-09-20T04:21:13.159Z,78.80
2022-09-20T04:23:50.915Z,79.40
2022-09-20T04:26:29.734Z,79.40
2022-09-20T04:29:08.642Z,79.80
2022-09-20T04:31:41.344Z,79.80
2022-09-20T04:34:15.965Z,79.50
2022-09-20T04:36:58.806Z,78.70
2022-09-20T04:39:40.405Z,79.90
2022-09-20T04:42:36.893Z,80.10
2022-09-20T04:45:30.355Z,80.00
2022-09-20T04:48:30.062Z,79.60
2022-09-20T04:51:49.398Z,77.60
2022-09-20T04:54:52.670Z,77.20
2022-09-20T04:57:54.067Z,78.60
2022-09-20T05:00:25.322Z,77.50
2022-09-20T05:03:37.221Z,78.50
2022-09-20T05:06:43.361Z,78.90
2022-09-20T05:09:28.204Z,78.90
2022-09-20T05:12:21.416Z,78.90
2022-09-20T05:15:12.677Z,78.90
2022-09-20T05:18:00.701Z,78.60
2022-09-20T05:20:46.568Z,78.90
2022-09-20T05:23:35.708Z,77.80
2022-09-20T05:26:18.559Z,76.80
2022-09-20T05:28:54.439Z,76.60
2022-09-20T05:31:31.491Z,75.60
2022-09-20T05:34:11.597Z,75.30
2022-09-20T05:36:49.819Z,74.20
2022-09-20T05:39:33.963Z,73.20
2022-09-20T05:42:12.617Z,72.30
2022-09-20T05:44:55.606Z,73.90
2022-09-20T05:47:32.672Z,72.40
2022-09-20T05:50:17.892Z,72.80
2022-09-20T05:52:57.821Z,71.70
2022-09-20T05:56:03.393Z,68.50
2022-09-20T05:58:54.480Z,69.10
2022-09-20T06:01:27.718Z,69.60
2022-09-20T06:04:08.111Z,70.60
2022-09-20T06:06:48.537Z,70.30
2022-09-20T06:09:36.770Z,70.50
2022-09-20T06:12:24.648Z,70.90
2022-09-20T06:15:01.841Z,71.40
2022-09-20T06:17:34.225Z,71.60
2022-09-20T06:20:17.290Z,72.30
2022-09-20T06:22:49.888Z,72.20
2022-09-20T06:25:22.727Z,72.70
2022-09-20T06:27:54.690Z,73.30
2022-09-20T06:30:27.512Z,72.10
2022-09-20T06:33:00.637Z,72.20
2022-09-20T06:35:34.830Z,70.70
2022-09-20T06:38:35.629Z,70.90
2022-09-20T06:41:22.546Z,70.90
2022-09-20T06:43:50.746Z,70.50
2022-09-20T06:46:19.268Z,71.60
2022-09-20T06:48:47.266Z,72.00
2022-09-20T06:51:15.143Z,69.20
2022-09-20T06:53:44.356Z,66.90
2022-09-20T06:56:17.693Z,66.90
2022-09-20T06:58:45.653Z,64.50
2022-09-20T07:01:14.274Z,62.60
2022-09-20T07:03:42.283Z,59.70
2022-09-20T07:06:10.877Z,60.20
2022-09-20T07:08:39.400Z,59.50
2022-09-20T07:11:11.114Z,57.50
2022-09-20T07:13:39.023Z,58.10
2022-09-20T07:16:08.729Z,56.80
2022-09-20T07:18:36.653Z,57.00
2022-09-20T07:21:06.297Z,56.70
2022-09-20T07:23:34.223Z,57.30
2022-09-20T07:26:02.121Z,55.80
2022-09-20T07:28:33.055Z,55.70
2022-09-20T07:31:01.165Z,55.20
2022-09-20T07:33:29.015Z,56.50
2022-09-20T07:35:56.928Z,56.30
2022-09-20T07:38:25.303Z,55.30
2022-09-20T07:40:57.639Z,54.90
2022-09-20T07:43:25.868Z,52.60
2022-09-20T07:45:58.035Z,53.30
2022-09-20T07:48:27.666Z,52.10
2022-09-20T07:50:57.092Z,51.90
2022-09-20T07:53:25.520Z,50.90
2022-09-20T07:56:04.677Z,50.80
2022-09-20T07:58:34.495Z,50.00
2022-09-20T08:01:05.867Z,49.30
2022-09-20T08:03:34.803Z,49.70
2022-09-20T08:06:04.274Z,48.90
2022-09-20T08:08:33.794Z,47.90
2022-09-20T08:11:06.466Z,47.40
2022-09-20T08:16:27.891Z,49.10
2022-09-20T08:18:57.687Z,48.30
2022-09-20T08:21:26.838Z,47.50
2022-09-20T08:23:54.841Z,45.80
2022-09-20T08:26:24.585Z,46.50
2022-09-20T08:28:54.543Z,46.30
2022-09-20T08:31:23.891Z,46.00
2022-09-20T08:33:54.280Z,47.30
2022-09-20T08:36:24.403Z,48.10
2022-09-20T08:41:46.666Z,50.30
2022-09-20T08:44:19.423Z,51.20
2022-09-20T08:46:51.325Z,52.90
2022-09-20T08:49:28.358Z,52.00
2022-09-20T08:51:58.136Z,53.70
2022-09-20T08:54:32.163Z,52.60
2022-09-20T08:57:05.191Z,53.00
2022-09-20T08:59:33.557Z,54.70
2022-09-20T09:02:01.755Z,55.60
2022-09-20T09:04:36.587Z,55.90
2022-09-20T09:07:08.235Z,55.00
2022-09-20T09:09:42.252Z,56.10
2022-09-20T09:12:18.647Z,55.60
2022-09-20T09:14:49.195Z,54.20
2022-09-20T09:17:19.436Z,55.50
2022-09-20T09:19:51.483Z,54.10
2022-09-20T09:22:21.994Z,52.30
2022-09-20T09:25:08.991Z,54.10
2022-09-20T09:27:50.328Z,54.10
2022-09-20T09:30:22.718Z,54.00
2022-09-20T09:32:50.855Z,55.00
2022-09-20T09:35:29.197Z,54.10
2022-09-20T09:37:58.934Z,53.70
2022-09-20T09:40:28.245Z,54.20
2022-09-20T09:42:57.861Z,54.10
2022-09-20T09:45:30.356Z,55.10
2022-09-20T09:48:00.009Z,55.20
2022-09-20T09:50:31.812Z,55.50
2022-09-20T09:53:01.295Z,54.00
2022-09-20T09:55:38.911Z,54.60
2022-09-20T09:58:16.036Z,53.00
2022-09-20T10:00:47.199Z,54.20
2022-09-20T10:03:32.934Z,54.60
2022-09-20T10:06:14.970Z,54.40
2022-09-20T10:08:51.922Z,55.00
2022-09-20T10:11:35.062Z,54.90
2022-09-20T10:14:15.061Z,53.10
2022-09-20T10:16:57.449Z,53.20
2022-09-20T10:19:41.828Z,50.00
2022-09-20T10:22:21.533Z,49.30
2022-09-20T10:25:02.019Z,48.90
2022-09-20T10:27:48.263Z,48.10
2022-09-20T10:30:20.225Z,49.80
2022-09-20T10:33:00.466Z,49.60
2022-09-20T10:35:36.849Z,49.50
2022-09-20T10:38:15.222Z,49.60
2022-09-20T10:41:13.106Z,50.30
2022-09-20T10:43:55.378Z,48.30
2022-09-20T10:46:33.207Z,47.00
2022-09-20T10:49:07.900Z,46.70
2022-09-20T10:51:45.524Z,46.50
2022-09-20T10:54:27.589Z,48.00
2022-09-20T10:57:07.050Z,48.20
2022-09-20T10:59:47.228Z,47.30
2022-09-20T11:02:34.094Z,47.10
2022-09-20T11:05:25.303Z,48.00
2022-09-20T11:08:02.888Z,47.20
2022-09-20T11:10:37.607Z,50.00
2022-09-20T11:13:11.550Z,50.60
2022-09-20T11:15:45.662Z,50.10
2022-09-20T11:18:23.411Z,51.40
2022-09-20T11:20:59.208Z,51.70
2022-09-20T11:23:34.210Z,50.50
2022-09-20T11:26:11.348Z,51.60
2022-09-20T11:28:44.074Z,51.30
2022-09-20T11:31:19.900Z,51.50
2022-09-20T11:33:53.117Z,52.90
2022-09-20T11:36:27.118Z,53.20
2022-09-20T11:38:59.741Z,52.20
2022-09-20T11:41:30.515Z,52.30
2022-09-20T11:44:02.562Z,50.60
2022-09-20T11:46:34.634Z,50.20
2022-09-20T11:49:08.756Z,50.50
2022-09-20T11:52:03.017Z,49.90
2022-09-20T11:54:55.705Z,50.00
2022-09-20T11:57:25.733Z,50.20
2022-09-20T11:59:56.259Z,50.10
2022-09-20T12:02:29.039Z,51.40
2022-09-20T12:04:57.168Z,51.70
2022-09-20T12:07:26.885Z,50.80
2022-09-20T12:09:59.051Z,50.50
2022-09-20T12:12:39.138Z,49.90
2022-09-20T12:15:23.005Z,50.90
2022-09-20T12:18:13.423Z,49.30
2022-09-20T12:21:01.871Z,50.10
2022-09-20T12:24:03.160Z,48.20
2022-09-20T12:26:40.835Z,47.90
2022-09-20T12:29:50.529Z,46.40
2022-09-20T12:32:56.237Z,45.50
2022-09-20T12:36:15.037Z,48.10
2022-09-20T12:38:57.818Z,45.70
2022-09-20T12:41:28.984Z,45.30
2022-09-20T12:44:06.915Z,45.10
2022-09-20T12:46:39.380Z,44.10
2022-09-20T12:49:53.811Z,44.20
2022-09-20T12:53:01.100Z,44.80
2022-09-20T12:55:39.962Z,42.10
2022-09-20T12:58:20.146Z,43.40
2022-09-20T13:00:50.245Z,45.00
2022-09-20T13:03:31.746Z,45.00
2022-09-20T13:06:27.397Z,47.20
2022-09-20T13:09:04.218Z,48.80
2022-09-20T13:11:40.207Z,49.20
2022-09-20T13:14:13.542Z,52.40
2022-09-20T13:16:50.911Z,54.50
2022-09-20T13:19:21.585Z,53.60
2022-09-20T13:21:56.089Z,53.10
2022-09-20T13:24:26.837Z,51.90
2022-09-20T13:27:01.858Z,52.60
2022-09-20T13:29:35.246Z,52.20
2022-09-20T13:32:16.930Z,50.40
2022-09-20T13:34:45.581Z,50.50
2022-09-20T13:37:21.048Z,51.20
2022-09-20T13:39:53.960Z,51.60
2022-09-20T13:42:23.671Z,51.00
2022-09-20T13:44:51.933Z,50.80
2022-09-20T13:47:25.163Z,50.90
2022-09-20T13:49:53.110Z,50.50
2022-09-20T13:52:26.168Z,51.20
2022-09-20T13:54:55.114Z,50.90
2022-09-20T13:57:28.149Z,52.20
2022-09-20T13:59:57.971Z,51.60
2022-09-20T14:02:28.995Z,51.60
2022-09-20T14:05:00.563Z,51.80
2022-09-20T14:07:29.736Z,52.10
2022-09-20T14:09:58.886Z,49.90
2022-09-20T14:12:29.031Z,51.10
2022-09-20T14:14:57.318Z,46.40
2022-09-20T14:17:26.512Z,45.70
2022-09-20T14:19:57.470Z,44.80
2022-09-20T14:22:27.840Z,44.80
2022-09-20T14:25:06.589Z,44.80
2022-09-20T14:27:35.819Z,46.10
2022-09-20T14:30:04.563Z,47.60
2022-09-20T14:32:53.264Z,46.40
2022-09-20T14:35:23.179Z,47.40
2022-09-20T14:37:52.982Z,46.60
2022-09-20T14:40:24.318Z,46.20
2022-09-20T14:42:56.941Z,46.60
2022-09-20T14:45:31.422Z,46.40
2022-09-20T14:48:06.730Z,47.50
2022-09-20T14:50:39.931Z,48.00
2022-09-20T14:53:27.215Z,48.60
2022-09-20T14:56:10.492Z,48.70
2022-09-20T14:59:07.572Z,50.10
2022-09-20T15:01:37.157Z,50.80
2022-09-20T15:04:10.355Z,49.20
2022-09-20T15:06:40.133Z,48.40
2022-09-20T15:09:08.136Z,47.30
2022-09-20T15:11:36.060Z,45.40
2022-09-20T15:14:03.925Z,45.40
2022-09-20T15:16:33.620Z,45.20
2022-09-20T15:19:01.564Z,46.60
2022-09-20T15:21:30.463Z,46.60
2022-09-20T15:23:58.307Z,46.10
2022-09-20T15:26:26.206Z,46.00
2022-09-20T15:28:54.122Z,45.50
2022-09-20T15:31:22.154Z,45.70
2022-09-20T15:33:51.453Z,45.50
2022-09-20T15:36:19.340Z,44.30
2022-09-20T15:38:47.232Z,44.80
2022-09-20T15:41:15.111Z,43.60
2022-09-20T15:43:43.311Z,43.90
2022-09-20T15:46:19.070Z,43.90
2022-09-20T15:48:46.954Z,43.90
2022-09-20T15:51:16.540Z,42.20
2022-09-20T15:53:46.135Z,42.50
2022-09-20T15:56:17.090Z,42.10
2022-09-20T15:58:47.384Z,42.10
2022-09-20T16:01:16.729Z,41.70
2022-09-20T16:03:46.563Z,40.90
2022-09-20T16:06:16.118Z,42.10
2022-09-20T16:08:44.736Z,42.70
2022-09-20T16:11:18.187Z,42.30
2022-09-20T16:13:53.095Z,42.10
2022-09-20T16:16:21.482Z,42.90
2022-09-20T16:19:07.180Z,43.30
2022-09-20T16:21:39.159Z,43.30
2022-09-20T16:24:08.172Z,43.70
2022-09-20T16:26:37.289Z,44.00
2022-09-20T16:29:07.371Z,44.00
2022-09-20T16:31:40.055Z,44.10
2022-09-20T16:34:13.195Z,44.40
2022-09-20T16:36:43.338Z,44.90
2022-09-20T16:39:12.321Z,45.40
2022-09-20T16:41:40.594Z,45.70
2022-09-20T16:44:09.189Z,46.30
2022-09-20T16:46:37.486Z,47.00
2022-09-20T16:49:07.280Z,48.60
2022-09-20T16:51:37.183Z,47.60
2022-09-20T16:54:11.608Z,48.10
2022-09-20T16:56:41.059Z,48.20
2022-09-20T16:59:09.206Z,48.20
2022-09-20T17:01:37.836Z,49.20
2022-09-20T17:04:06.825Z,50.00
2022-09-20T17:06:36.159Z,50.40
2022-09-20T17:09:06.974Z,51.50
2022-09-20T17:11:36.781Z,52.50
2022-09-20T17:14:05.519Z,52.40
2022-09-20T17:16:35.278Z,52.90
2022-09-20T17:19:07.260Z,53.50
2022-09-20T17:21:36.993Z,53.80
2022-09-20T17:24:07.369Z,54.60
2022-09-20T17:26:38.348Z,55.00
2022-09-20T17:29:07.856Z,56.20
2022-09-20T17:31:37.770Z,56.10
2022-09-20T17:34:07.730Z,56.60
2022-09-20T17:36:39.687Z,56.90
2022-09-20T17:39:10.942Z,57.30
2022-09-20T17:41:39.886Z,57.80
2022-09-20T17:44:09.742Z,58.40
2022-09-20T17:46:39.301Z,58.60
2022-09-20T17:49:09.366Z,59.20
2022-09-20T17:51:39.871Z,59.40
2022-09-20T17:54:12.810Z,60.00
2022-09-20T17:56:42.576Z,60.10
2022-09-20T17:59:12.373Z,60.00
2022-09-20T18:01:41.794Z,57.40
2022-09-20T18:04:10.222Z,55.20
2022-09-20T18:06:42.104Z,53.80
2022-09-20T18:09:12.546Z,53.40
2022-09-20T18:11:42.171Z,52.50
2022-09-20T18:14:11.374Z,53.00
2022-09-20T18:16:39.474Z,52.20
2022-09-20T18:19:08.586Z,52.60
2022-09-20T18:21:37.934Z,52.20
2022-09-20T18:24:07.109Z,52.10
2022-09-20T18:26:36.884Z,51.30
2022-09-20T18:29:06.821Z,52.00
2022-09-20T18:31:37.331Z,51.40
2022-09-20T18:34:06.826Z,52.10
2022-09-20T18:36:36.508Z,52.00
2022-09-20T18:39:04.827Z,52.90
2022-09-20T18:41:35.111Z,53.00
2022-09-20T18:44:07.143Z,53.70
2022-09-20T18:46:37.937Z,53.80
2022-09-20T18:49:08.305Z,54.30
2022-09-20T18:51:39.789Z,55.10
2022-09-20T18:54:10.367Z,56.50
2022-09-20T18:56:40.239Z,56.10
2022-09-20T18:59:15.540Z,56.20
2022-09-20T19:02:05.569Z,56.80
2022-09-20T19:04:59.964Z,57.00
2022-09-20T19:07:37.675Z,57.40
2022-09-20T19:10:14.090Z,57.20
2022-09-20T19:12:48.771Z,57.40
2022-09-20T19:15:37.525Z,58.10
2022-09-20T19:18:20.428Z,58.20
2022-09-20T19:20:59.023Z,59.20
2022-09-20T19:23:42.870Z,59.00
2022-09-20T19:26:20.309Z,59.70
2022-09-20T19:28:48.983Z,59.20
2022-09-20T19:31:24.177Z,59.50
2022-09-20T19:33:54.826Z,59.70
2022-09-20T19:36:23.439Z,59.60
2022-09-20T19:39:00.816Z,59.60
2022-09-20T19:41:39.409Z,59.60
2022-09-20T19:44:21.902Z,58.60
2022-09-20T19:47:04.501Z,58.50
2022-09-20T19:49:46.684Z,59.50
2022-09-20T19:52:15.302Z,59.50
2022-09-20T19:54:46.742Z,59.60
2022-09-20T19:57:22.686Z,60.60
2022-09-20T19:59:51.718Z,62.10
2022-09-20T20:02:21.242Z,63.00
2022-09-20T20:04:49.569Z,62.60
2022-09-20T20:07:27.742Z,63.10
2022-09-20T20:10:03.996Z,63.50
2022-09-20T20:12:36.687Z,63.30
2022-09-20T20:15:16.132Z,63.20
2022-09-20T20:17:54.623Z,62.60
2022-09-20T20:20:32.822Z,61.90
2022-09-20T20:23:47.819Z,62.30
2022-09-20T20:26:21.263Z,62.60
2022-09-20T20:28:49.208Z,62.90
2022-09-20T20:31:17.241Z,62.50
2022-09-20T20:33:46.679Z,62.00
2022-09-20T20:36:14.578Z,62.40
2022-09-20T20:38:49.354Z,62.30
2022-09-20T20:41:20.359Z,62.80
2022-09-20T20:43:48.742Z,62.40
2022-09-20T20:46:18.649Z,62.60
2022-09-20T20:48:48.316Z,62.30
2022-09-20T20:51:18.548Z,62.90
2022-09-20T20:53:48.517Z,63.20
2022-09-20T20:56:18.694Z,63.30
2022-09-20T20:58:47.418Z,63.60
2022-09-20T21:01:17.990Z,63.50
2022-09-20T21:03:50.229Z,62.50
2022-09-20T21:06:18.453Z,62.60
2022-09-20T21:08:49.601Z,62.80
2022-09-20T21:11:21.184Z,62.90
2022-09-20T21:13:49.317Z,62.50
2022-09-20T21:16:19.347Z,62.40
2022-09-20T21:18:50.364Z,62.80
2022-09-20T21:21:19.871Z,63.90
2022-09-20T21:23:49.876Z,63.50
2022-09-20T21:26:17.964Z,63.10
2022-09-20T21:28:51.029Z,63.10
2022-09-20T21:31:19.719Z,62.30
2022-09-20T21:33:49.501Z,62.00
2022-09-20T21:36:18.474Z,63.00
2022-09-20T21:38:46.939Z,63.20
2022-09-20T21:41:17.670Z,63.00
2022-09-20T21:43:47.646Z,62.70
2022-09-20T21:46:17.591Z,61.70
2022-09-20T21:48:45.755Z,61.60
2022-09-20T21:51:17.056Z,61.60
2022-09-20T21:53:46.295Z,62.00
2022-09-20T21:56:16.070Z,63.70
2022-09-20T21:58:44.107Z,63.10
2022-09-20T22:01:14.134Z,63.00
2022-09-20T22:03:43.499Z,63.00
2022-09-20T22:06:14.505Z,63.00
2022-09-20T22:08:46.379Z,62.10
2022-09-20T22:11:15.782Z,62.50
2022-09-20T22:13:44.519Z,62.80
2022-09-20T22:16:14.224Z,62.30
2022-09-20T22:18:44.161Z,63.10
2022-09-20T22:21:15.559Z,62.60
2022-09-20T22:23:44.030Z,62.60
2022-09-20T22:26:13.595Z,63.20
2022-09-20T22:28:42.481Z,62.60
2022-09-20T22:31:13.211Z,62.50
2022-09-20T22:33:42.930Z,62.50
2022-09-20T22:36:12.548Z,62.10
2022-09-20T22:38:41.980Z,63.00
2022-09-20T22:41:09.851Z,63.50
2022-09-20T22:43:38.279Z,63.20
2022-09-20T22:46:07.787Z,63.10
2022-09-20T22:48:36.723Z,62.90
2022-09-20T22:51:06.625Z,62.20
2022-09-20T22:53:35.478Z,60.00
2022-09-20T22:56:06.959Z,61.70
2022-09-20T22:58:36.733Z,62.30
2022-09-20T23:01:06.936Z,62.10
2022-09-20T23:03:35.388Z,61.40
2022-09-20T23:06:04.063Z,61.10
2022-09-20T23:08:34.225Z,61.70
2022-09-20T23:11:03.723Z,62.10
2022-09-20T23:13:33.230Z,60.40
2022-09-20T23:16:01.241Z,59.80
2022-09-20T23:18:29.163Z,61.10
2022-09-20T23:21:01.479Z,61.20
2022-09-20T23:23:29.995Z,61.10
2022-09-20T23:26:06.856Z,61.30
2022-09-20T23:28:36.331Z,61.50
2022-09-20T23:31:05.522Z,60.80
2022-09-20T23:33:33.596Z,59.80
2022-09-20T23:36:03.010Z,60.10
2022-09-20T23:38:30.874Z,61.20
2022-09-20T23:41:03.897Z,61.50
2022-09-20T23:43:31.856Z,61.20
2022-09-20T23:46:01.515Z,61.90
2022-09-20T23:48:30.059Z,61.60
2022-09-20T23:50:58.148Z,61.80
2022-09-20T23:53:26.121Z,61.10
2022-09-20T23:55:54.015Z,61.40
2022-09-20T23:58:21.956Z,60.80
